createdAt,value
2022-11-25T00:02:27.012Z,5.53
2022-11-25T00:08:29.188Z,4.88
2022-11-25T00:14:31.301Z,6.05
2022-11-25T00:20:33.692Z,5.82
2022-11-25T00:26:36.901Z,7.22
2022-11-25T00:32:39.580Z,7.45
2022-11-25T00:38:42.348Z,8.70
2022-11-25T00:44:44.663Z,9.70
2022-11-25T00:50:46.774Z,9.27
2022-11-25T00:56:48.985Z,9.60
2022-11-25T01:02:51.496Z,11.77
2022-11-25T01:08:54.254Z,12.43
2022-11-25T01:21:23.538Z,15.13
2022-11-25T01:27:25.727Z,18.33
2022-11-25T01:33:28.441Z,19.27
2022-11-25T01:39:33.136Z,19.40
2022-11-25T01:45:38.009Z,18.13
2022-11-25T01:52:01.935Z,18.52
2022-11-25T01:58:15.842Z,19.70
2022-11-25T02:04:19.674Z,21.13
2022-11-25T02:10:27.078Z,18.75
2022-11-25T02:16:29.688Z,17.42
2022-11-25T02:28:47.193Z,18.95
2022-11-25T02:34:50.762Z,18.02
2022-11-25T02:41:03.905Z,18.13
2022-11-25T02:47:06.363Z,19.23
2022-11-25T02:53:08.857Z,19.55
2022-11-25T02:59:12.214Z,20.40
2022-11-25T03:05:15.030Z,18.75
2022-11-25T03:11:17.334Z,18.98
2022-11-25T03:17:19.899Z,20.40
2022-11-25T03:23:22.922Z,18.25
2022-11-25T03:29:28.849Z,20.60
2022-11-25T03:35:31.311Z,18.13
2022-11-25T03:41:33.870Z,19.25
2022-11-25T03:47:37.603Z,18.40
2022-11-25T03:53:39.915Z,19.25
2022-11-25T03:59:44.675Z,18.73
2022-11-25T04:05:46.977Z,18.33
2022-11-25T04:12:07.962Z,19.25
2022-11-25T04:18:21.341Z,16.02
2022-11-25T04:24:27.765Z,16.77
2022-11-25T04:30:30.353Z,16.52
2022-11-25T04:36:33.154Z,17.00
2022-11-25T04:42:38.236Z,16.40
2022-11-25T04:48:43.723Z,15.50
2022-11-25T04:54:46.375Z,16.35
2022-11-25T05:06:52.153Z,17.60
2022-11-25T05:12:55.855Z,17.48
2022-11-25T05:18:58.222Z,15.32
2022-11-25T05:25:02.405Z,25.10
2022-11-25T05:31:06.369Z,16.50
2022-11-25T05:37:09.924Z,15.80
2022-11-25T05:43:14.449Z,16.52
2022-11-25T05:49:18.435Z,15.75
2022-11-25T05:55:21.061Z,17.20
2022-11-25T06:01:24.285Z,15.02
2022-11-25T06:07:26.788Z,13.85
2022-11-25T06:13:29.701Z,13.57
2022-11-25T06:19:32.131Z,11.57
2022-11-25T06:25:34.538Z,10.00
2022-11-25T06:31:36.844Z,10.18
2022-11-25T06:37:51.674Z,11.30
2022-11-25T06:43:54.369Z,12.38
2022-11-25T06:49:56.839Z,13.13
2022-11-25T06:56:06.412Z,12.02
2022-11-25T07:02:12.581Z,12.27
2022-11-25T07:08:14.970Z,13.55
2022-11-25T07:14:17.964Z,12.82
2022-11-25T07:20:20.233Z,13.35
2022-11-25T07:26:25.740Z,13.68
2022-11-25T07:32:28.108Z,11.38
2022-11-25T07:38:30.362Z,12.07
2022-11-25T07:44:32.790Z,11.70
2022-11-25T07:50:58.234Z,11.63
2022-11-25T07:57:00.544Z,14.13
2022-11-25T08:03:02.815Z,12.73
2022-11-25T08:09:05.586Z,12.05
2022-11-25T08:21:12.165Z,14.27
2022-11-25T08:27:14.538Z,13.68
2022-11-25T08:33:16.897Z,14.05
2022-11-25T08:39:51.978Z,14.13
2022-11-25T08:45:43.898Z,16.98
2022-11-25T08:57:48.464Z,15.10
2022-11-25T09:03:52.173Z,15.02
2022-11-25T09:09:54.335Z,15.15
2022-11-25T09:15:57.661Z,17.20
2022-11-25T09:21:59.873Z,13.13
2022-11-25T09:28:02.546Z,15.45
2022-11-25T09:40:08.968Z,15.75
2022-11-25T09:46:35.896Z,15.50
2022-11-25T09:52:58.197Z,17.40
2022-11-25T09:59:07.498Z,16.08
2022-11-25T10:05:27.337Z,18.63
2022-11-25T10:11:56.541Z,20.17
2022-11-25T10:18:10.764Z,18.45
2022-11-25T10:24:18.759Z,20.17
2022-11-25T10:30:58.933Z,17.90
2022-11-25T10:37:05.560Z,20.92
2022-11-25T10:43:14.398Z,16.63
2022-11-25T10:49:36.444Z,18.10
2022-11-25T10:55:38.695Z,20.95
2022-11-25T11:01:40.853Z,21.23
2022-11-25T11:07:45.496Z,17.42
2022-11-25T11:13:49.109Z,17.00
2022-11-25T11:20:09.489Z,19.25
2022-11-25T11:26:23.681Z,16.50
2022-11-25T11:32:28.563Z,15.75
2022-11-25T11:38:38.260Z,17.67
2022-11-25T11:45:04.847Z,16.80
2022-11-25T11:51:31.688Z,15.70
2022-11-25T11:57:33.803Z,15.55
2022-11-25T12:03:42.326Z,17.83
2022-11-25T12:09:55.656Z,22.10
2022-11-25T12:16:48.629Z,17.15
2022-11-25T12:23:06.138Z,17.13
2022-11-25T12:29:23.181Z,18.35
2022-11-25T12:35:46.872Z,28.20
2022-11-25T12:41:56.377Z,19.13
2022-11-25T12:47:58.495Z,20.80
2022-11-25T12:54:41.811Z,19.00
2022-11-25T13:00:47.219Z,17.33
2022-11-25T13:07:12.701Z,21.08
2022-11-25T13:13:27.759Z,18.15
2022-11-25T13:19:30.684Z,16.80
2022-11-25T13:25:33.468Z,16.20
2022-11-25T13:38:02.020Z,19.40
2022-11-25T13:44:04.277Z,31.02
2022-11-25T13:50:22.428Z,17.33
2022-11-25T13:56:28.112Z,17.75
2022-11-25T14:02:36.421Z,17.60
2022-11-25T14:08:53.361Z,18.65
2022-11-25T14:15:11.138Z,18.08
2022-11-25T14:21:41.330Z,18.98
2022-11-25T14:27:49.539Z,17.23
2022-11-25T14:33:57.478Z,20.63
2022-11-25T14:40:14.649Z,17.60
2022-11-25T14:46:21.206Z,18.63
2022-11-25T14:52:27.495Z,23.10
2022-11-25T14:58:31.196Z,20.58
2022-11-25T15:04:34.158Z,21.55
2022-11-25T15:10:57.729Z,20.40
2022-11-25T15:23:03.563Z,21.80
2022-11-25T15:29:12.577Z,22.60
2022-11-25T15:35:21.628Z,23.85
2022-11-25T15:41:34.057Z,23.17
2022-11-25T15:47:36.594Z,24.13
2022-11-25T15:53:39.614Z,23.55
2022-11-25T15:59:51.873Z,23.73
2022-11-25T16:05:56.199Z,27.17
2022-11-25T16:12:06.987Z,26.77
2022-11-25T16:18:38.697Z,24.85
2022-11-25T16:24:50.899Z,28.08
2022-11-25T16:30:57.850Z,27.75
2022-11-25T16:37:01.462Z,33.58
2022-11-25T16:43:04.175Z,29.40
2022-11-25T16:55:11.247Z,30.50
2022-11-25T17:07:34.852Z,32.63
2022-11-25T17:13:40.005Z,31.95
2022-11-25T17:19:42.124Z,31.70
2022-11-25T17:25:48.719Z,31.90
2022-11-25T17:31:56.732Z,29.60
2022-11-25T17:38:01.109Z,31.25
2022-11-25T17:50:22.293Z,28.35
2022-11-25T17:56:29.967Z,32.70
2022-11-25T18:02:32.949Z,30.08
2022-11-25T18:08:35.296Z,35.25
2022-11-25T18:14:38.889Z,34.67
2022-11-25T18:20:41.375Z,37.58
2022-11-25T18:26:47.570Z,32.60
2022-11-25T18:32:49.759Z,53.05
2022-11-25T18:38:51.934Z,52.50
2022-11-25T18:44:56.251Z,48.65
2022-11-25T18:50:58.418Z,42.97
2022-11-25T18:57:00.991Z,44.03
2022-11-25T19:03:03.604Z,39.42
2022-11-25T19:09:07.166Z,47.85
2022-11-25T19:15:11.560Z,54.08
2022-11-25T19:21:18.214Z,52.00
2022-11-25T19:27:24.993Z,42.40
2022-11-25T19:33:36.268Z,44.70
2022-11-25T19:39:38.332Z,40.72
2022-11-25T19:45:40.676Z,34.17
2022-11-25T19:51:43.435Z,33.55
2022-11-25T19:57:45.961Z,31.55
2022-11-25T20:15:56.214Z,27.90
2022-11-25T20:21:58.533Z,26.45
2022-11-25T20:28:00.669Z,27.52
2022-11-25T20:34:02.896Z,24.52
2022-11-25T20:40:10.655Z,27.38
2022-11-25T20:46:18.720Z,25.98
2022-11-25T20:52:28.067Z,28.42
2022-11-25T20:58:32.129Z,29.58
2022-11-25T21:04:34.632Z,27.13
2022-11-25T21:10:37.039Z,28.13
2022-11-25T21:16:39.184Z,29.25
2022-11-25T21:22:45.014Z,26.92
2022-11-25T21:28:48.936Z,28.70
2022-11-25T21:34:51.049Z,26.15
2022-11-25T21:40:58.717Z,25.35
2022-11-25T21:47:01.035Z,24.80
2022-11-25T21:53:03.292Z,31.58
2022-11-25T21:59:07.785Z,27.40
2022-11-25T22:05:18.647Z,30.15
2022-11-25T22:11:25.337Z,29.17
2022-11-25T22:17:28.193Z,20.73
2022-11-25T22:23:30.453Z,22.45
2022-11-25T22:29:36.226Z,22.15
2022-11-25T22:35:38.262Z,20.50
2022-11-25T22:41:42.663Z,25.00
2022-11-25T22:47:46.339Z,22.38
2022-11-25T22:53:48.532Z,19.88
2022-11-25T22:59:50.778Z,16.63
2022-11-25T23:05:54.531Z,19.02
2022-11-25T23:11:56.735Z,16.90
2022-11-25T23:18:01.433Z,17.55
2022-11-25T23:24:05.868Z,16.92
2022-11-25T23:30:09.781Z,20.73
2022-11-25T23:36:18.904Z,21.13
2022-11-25T23:42:21.683Z,18.75
2022-11-25T23:48:28.241Z,19.17
2022-11-25T23:54:45.781Z,14.60
